Terminal Aerodrome Forecast
Issued by NWS Northern Indiana

Home | Current Version | Previous Version | Graphics & Text | Print | Product List | Glossary On
Versions: 1 2 3 4 5 6 7 8 9 10 11 12 13
677
FTUS43 KIWX 241739
TAFFWA
TAF
KFWA 241739Z 2418/2518 20012G21KT P6SM FEW250
     FM241900 20015G25KT P6SM FEW250
     FM250100 21012G18KT P6SM FEW250 WS020/23045KT
     FM250500 23012KT P6SM BKN200
     FM250800 26009KT P6SM BKN120
     FM251100 28012KT P6SM BKN025=

USA.gov is the U.S. government's official web portal to all federal, state and local government web resources and services.